createdAt,value
2018-06-29T00:01:06.345Z,0.00
2018-06-29T00:02:37.916Z,0.00
2018-06-29T00:04:09.489Z,0.00
2018-06-29T00:05:41.161Z,0.00
2018-06-29T00:07:12.778Z,0.00
2018-06-29T00:08:44.206Z,0.00
2018-06-29T00:10:15.778Z,0.00
2018-06-29T00:11:47.351Z,0.00
2018-06-29T00:13:18.924Z,0.00
2018-06-29T00:14:50.496Z,0.00
2018-06-29T00:16:22.068Z,0.00
2018-06-29T00:17:53.640Z,0.00
2018-06-29T00:19:25.217Z,0.00
2018-06-29T00:20:56.786Z,0.00
2018-06-29T00:22:28.358Z,0.00
2018-06-29T00:24:00.582Z,0.00
2018-06-29T00:25:31.504Z,0.00
2018-06-29T00:27:03.076Z,0.00
2018-06-29T00:28:34.650Z,0.00
2018-06-29T00:30:06.223Z,0.00
2018-06-29T00:31:37.794Z,0.00
2018-06-29T00:33:09.372Z,0.00
2018-06-29T00:34:40.940Z,0.00
2018-06-29T00:36:12.515Z,0.00
2018-06-29T00:37:44.085Z,0.00
2018-06-29T00:39:15.658Z,0.00
2018-06-29T00:40:47.231Z,0.00
2018-06-29T00:42:18.904Z,0.00
2018-06-29T00:43:50.377Z,0.00
2018-06-29T00:45:21.948Z,0.00
2018-06-29T00:46:53.521Z,0.00
2018-06-29T00:48:25.093Z,0.00
2018-06-29T00:49:56.666Z,0.00
2018-06-29T00:51:28.239Z,0.00
2018-06-29T00:52:59.811Z,0.00
2018-06-29T00:54:31.647Z,0.00
2018-06-29T00:56:02.956Z,0.00
2018-06-29T00:57:34.528Z,0.00
2018-06-29T00:59:06.101Z,0.00
2018-06-29T01:00:37.772Z,0.00
2018-06-29T01:02:09.244Z,0.00
2018-06-29T01:03:40.819Z,0.00
2018-06-29T01:05:12.389Z,0.00
2018-06-29T01:06:43.961Z,0.00
2018-06-29T01:08:15.560Z,0.00
2018-06-29T01:09:47.109Z,0.00
2018-06-29T01:11:18.677Z,0.00
2018-06-29T01:12:50.249Z,0.00
2018-06-29T01:14:21.821Z,0.00
2018-06-29T01:15:53.393Z,0.00
2018-06-29T01:17:24.965Z,0.00
2018-06-29T01:18:56.637Z,0.00
2018-06-29T01:20:28.109Z,0.00
2018-06-29T01:21:59.681Z,0.00
2018-06-29T01:23:31.252Z,0.00
2018-06-29T01:25:02.980Z,0.00
2018-06-29T01:26:34.395Z,0.00
2018-06-29T01:28:05.997Z,0.00
2018-06-29T01:29:37.540Z,0.00
2018-06-29T01:31:09.110Z,0.00
2018-06-29T01:32:40.682Z,0.00
2018-06-29T01:34:12.258Z,0.00
2018-06-29T01:35:43.825Z,0.00
2018-06-29T01:37:15.497Z,0.00
2018-06-29T01:38:46.968Z,0.00
2018-06-29T01:40:18.540Z,0.00
2018-06-29T01:41:50.111Z,0.00
2018-06-29T01:43:21.682Z,0.00
2018-06-29T01:44:53.254Z,0.00
2018-06-29T01:46:24.825Z,0.00
2018-06-29T01:47:56.398Z,0.00
2018-06-29T01:49:27.972Z,0.00
2018-06-29T01:50:59.542Z,0.00
2018-06-29T01:52:31.167Z,0.00
2018-06-29T01:54:02.683Z,0.00
2018-06-29T01:55:34.958Z,0.00
2018-06-29T01:57:05.826Z,0.00
2018-06-29T01:58:37.403Z,0.00
2018-06-29T02:00:08.968Z,0.00
2018-06-29T02:01:40.789Z,0.00
2018-06-29T02:03:12.110Z,0.00
2018-06-29T02:04:43.681Z,0.00
2018-06-29T02:06:15.252Z,0.00
2018-06-29T02:07:46.824Z,0.00
2018-06-29T02:09:18.394Z,0.00
2018-06-29T02:10:49.968Z,0.00
2018-06-29T02:12:21.537Z,0.00
2018-06-29T02:13:53.208Z,0.00
2018-06-29T02:15:24.679Z,0.00
2018-06-29T02:16:56.250Z,0.00
2018-06-29T02:18:27.820Z,0.00
2018-06-29T02:19:59.391Z,0.00
2018-06-29T02:21:30.962Z,0.00
2018-06-29T02:23:02.536Z,0.00
2018-06-29T02:24:34.106Z,0.00
2018-06-29T02:26:05.677Z,0.00
2018-06-29T02:27:37.252Z,0.00
2018-06-29T02:29:08.819Z,0.00
2018-06-29T02:30:40.470Z,0.00
2018-06-29T02:32:12.059Z,0.00
2018-06-29T02:33:43.547Z,0.00
2018-06-29T02:35:15.101Z,0.00
2018-06-29T02:36:46.682Z,0.00
2018-06-29T02:38:18.244Z,0.00
2018-06-29T02:39:49.815Z,0.00
2018-06-29T02:41:21.386Z,0.00
2018-06-29T02:42:52.957Z,0.00
2018-06-29T02:44:24.529Z,0.00
2018-06-29T02:45:56.100Z,0.00
2018-06-29T02:47:27.671Z,0.00
2018-06-29T02:48:59.242Z,0.00
2018-06-29T02:50:30.914Z,0.00
2018-06-29T02:52:02.385Z,0.00
2018-06-29T02:53:33.960Z,0.00
2018-06-29T02:55:05.527Z,0.00
2018-06-29T02:56:37.099Z,0.00
2018-06-29T02:58:08.669Z,0.00
2018-06-29T02:59:40.240Z,0.00
2018-06-29T03:01:11.811Z,0.00
2018-06-29T03:02:43.387Z,0.00
2018-06-29T03:04:14.954Z,0.00
2018-06-29T03:05:46.524Z,0.00
2018-06-29T03:07:18.095Z,0.00
2018-06-29T03:08:49.771Z,0.00
2018-06-29T03:10:21.237Z,0.00
2018-06-29T03:11:52.809Z,0.00
2018-06-29T03:13:24.380Z,0.00
2018-06-29T03:14:55.951Z,0.00
2018-06-29T03:16:27.527Z,0.00
2018-06-29T03:17:59.094Z,0.00
2018-06-29T03:19:30.670Z,0.00
2018-06-29T03:21:02.239Z,0.00
2018-06-29T03:22:33.812Z,0.00
2018-06-29T03:24:05.382Z,0.00
2018-06-29T03:25:36.952Z,0.00
2018-06-29T03:27:08.875Z,0.00
2018-06-29T03:28:40.096Z,0.00
2018-06-29T03:30:11.668Z,0.00
2018-06-29T03:31:43.242Z,0.00
2018-06-29T03:33:14.811Z,0.00
2018-06-29T03:34:46.383Z,0.00
2018-06-29T03:36:17.955Z,0.00
2018-06-29T03:37:49.527Z,0.00
2018-06-29T03:39:21.099Z,0.00
2018-06-29T03:40:52.671Z,0.00
2018-06-29T03:42:24.242Z,0.00
2018-06-29T03:43:55.813Z,0.00
2018-06-29T03:45:27.487Z,0.00
2018-06-29T03:46:58.957Z,0.00
2018-06-29T03:48:30.529Z,0.00
2018-06-29T03:50:02.100Z,0.00
2018-06-29T03:51:33.672Z,0.00
2018-06-29T03:53:05.242Z,0.00
2018-06-29T03:54:36.815Z,0.00
2018-06-29T03:56:08.386Z,0.00
2018-06-29T03:57:40.208Z,0.00
2018-06-29T03:59:11.529Z,0.00
2018-06-29T04:00:43.101Z,0.00
2018-06-29T04:02:14.672Z,0.00
2018-06-29T04:03:46.344Z,0.00
2018-06-29T04:05:17.818Z,0.00
2018-06-29T04:06:49.386Z,0.00
2018-06-29T04:08:20.958Z,0.00
2018-06-29T04:09:52.530Z,0.00
2018-06-29T04:11:24.101Z,0.00
2018-06-29T04:12:55.737Z,0.00
2018-06-29T04:14:27.244Z,0.00
2018-06-29T04:15:58.815Z,0.00
2018-06-29T04:17:30.387Z,0.00
2018-06-29T04:19:01.959Z,0.00
2018-06-29T04:20:33.530Z,0.00
2018-06-29T04:22:05.205Z,0.00
2018-06-29T04:23:36.674Z,0.00
2018-06-29T04:25:08.244Z,0.00
2018-06-29T04:26:39.816Z,0.00
2018-06-29T04:28:11.391Z,0.00
2018-06-29T04:29:42.959Z,0.00
2018-06-29T04:31:14.530Z,0.00
2018-06-29T04:32:46.155Z,0.00
2018-06-29T04:34:17.673Z,0.00
2018-06-29T04:35:49.244Z,0.00
2018-06-29T04:37:20.816Z,0.00
2018-06-29T04:38:52.387Z,0.00
2018-06-29T04:40:24.059Z,0.00
2018-06-29T04:41:55.530Z,0.00
2018-06-29T04:43:27.101Z,0.00
2018-06-29T04:44:58.672Z,0.00
2018-06-29T04:46:30.245Z,0.00
2018-06-29T04:48:01.815Z,0.00
2018-06-29T04:49:33.386Z,0.00
2018-06-29T04:51:04.957Z,0.00
2018-06-29T04:52:36.528Z,0.00
2018-06-29T04:54:08.100Z,0.00
2018-06-29T04:55:39.671Z,0.00
2018-06-29T04:57:11.242Z,0.00
2018-06-29T04:58:43.216Z,0.00
2018-06-29T05:00:14.386Z,0.00
2018-06-29T05:01:45.956Z,0.00
2018-06-29T05:03:17.527Z,0.00
2018-06-29T05:04:49.100Z,0.00
2018-06-29T05:06:20.669Z,0.00
2018-06-29T05:07:52.240Z,0.00
2018-06-29T05:09:23.811Z,0.00
2018-06-29T05:10:55.382Z,0.00
2018-06-29T05:12:26.954Z,0.00
2018-06-29T05:13:58.528Z,0.00
2018-06-29T05:15:30.134Z,0.00
2018-06-29T05:17:01.767Z,0.00
2018-06-29T05:18:33.238Z,0.00
2018-06-29T05:20:04.809Z,0.00
2018-06-29T05:21:36.380Z,0.00
2018-06-29T05:23:07.954Z,0.00
2018-06-29T05:24:39.523Z,0.00
2018-06-29T05:26:11.093Z,0.00
2018-06-29T05:27:42.664Z,0.00
2018-06-29T05:29:14.485Z,0.00
2018-06-29T05:30:45.806Z,0.00
2018-06-29T05:32:17.378Z,0.00
2018-06-29T05:33:48.948Z,0.00
2018-06-29T05:35:20.620Z,0.00
2018-06-29T05:36:52.090Z,0.00
2018-06-29T05:38:23.662Z,0.00
2018-06-29T05:39:55.232Z,0.00
2018-06-29T05:41:26.825Z,0.00
2018-06-29T05:42:58.376Z,0.00
2018-06-29T05:44:29.948Z,0.00
2018-06-29T05:46:01.516Z,0.00
2018-06-29T05:47:33.087Z,0.00
2018-06-29T05:49:04.658Z,0.00
2018-06-29T05:50:36.229Z,0.00
2018-06-29T05:52:07.802Z,0.00
2018-06-29T05:53:39.471Z,0.00
2018-06-29T05:55:10.941Z,0.00
2018-06-29T05:56:42.512Z,0.00
2018-06-29T05:58:14.083Z,0.00
2018-06-29T05:59:45.654Z,0.00
2018-06-29T06:01:17.225Z,0.00
2018-06-29T06:02:48.797Z,0.00
2018-06-29T06:04:20.367Z,0.00
2018-06-29T06:05:51.938Z,0.00
2018-06-29T06:07:23.509Z,0.00
2018-06-29T06:08:55.079Z,0.00
2018-06-29T06:10:26.651Z,0.00
2018-06-29T06:11:58.321Z,0.00
2018-06-29T06:13:29.841Z,0.00
2018-06-29T06:15:01.365Z,0.00
2018-06-29T06:16:32.932Z,0.00
2018-06-29T06:18:04.503Z,0.00
2018-06-29T06:19:36.074Z,0.00
2018-06-29T06:21:07.645Z,0.00
2018-06-29T06:22:39.217Z,0.00
2018-06-29T06:24:10.789Z,0.00
2018-06-29T06:25:42.357Z,0.00
2018-06-29T06:27:13.928Z,0.00
2018-06-29T06:28:45.499Z,0.00
2018-06-29T06:30:17.421Z,0.00
2018-06-29T06:31:48.640Z,0.00
2018-06-29T06:33:20.211Z,0.00
2018-06-29T06:34:51.783Z,0.00
2018-06-29T06:36:23.352Z,0.00
2018-06-29T06:37:54.924Z,0.00
2018-06-29T06:39:26.496Z,0.00
2018-06-29T06:40:58.065Z,0.00
2018-06-29T06:42:29.635Z,0.00
2018-06-29T06:44:01.207Z,0.00
2018-06-29T06:45:32.777Z,0.00
2018-06-29T06:47:04.383Z,0.00
2018-06-29T06:48:36.021Z,0.00
2018-06-29T06:50:07.489Z,0.00
2018-06-29T06:51:39.058Z,0.00
2018-06-29T06:53:10.628Z,0.00
2018-06-29T06:56:13.770Z,0.00
2018-06-29T06:57:45.341Z,0.00
2018-06-29T06:59:16.910Z,0.00
2018-06-29T07:00:48.481Z,0.00
2018-06-29T07:02:20.055Z,0.00
2018-06-29T07:03:51.621Z,0.00
2018-06-29T07:05:23.191Z,0.00
2018-06-29T07:06:54.763Z,0.00
2018-06-29T07:08:26.433Z,0.00
2018-06-29T07:09:57.903Z,0.00
2018-06-29T07:11:29.474Z,0.00
2018-06-29T07:13:01.049Z,0.00
2018-06-29T07:14:32.617Z,0.00
2018-06-29T07:16:04.184Z,0.00
2018-06-29T07:17:35.755Z,0.00
2018-06-29T07:19:07.324Z,0.00
2018-06-29T07:20:38.896Z,0.00
2018-06-29T07:22:10.467Z,0.00
2018-06-29T07:23:42.037Z,0.00
2018-06-29T07:25:13.606Z,0.00
2018-06-29T07:26:45.727Z,0.00
2018-06-29T07:28:16.749Z,0.00
2018-06-29T07:29:48.317Z,0.00
2018-06-29T07:31:19.888Z,0.00
2018-06-29T07:32:51.458Z,0.00
2018-06-29T07:34:23.028Z,0.00
2018-06-29T07:35:54.600Z,0.00
2018-06-29T07:37:26.169Z,0.00
2018-06-29T07:38:57.739Z,0.00
2018-06-29T07:40:29.310Z,0.00
2018-06-29T07:42:00.879Z,0.00
2018-06-29T07:43:32.450Z,0.00
2018-06-29T07:45:04.120Z,0.00
2018-06-29T07:46:35.642Z,0.00
2018-06-29T07:48:07.160Z,0.00
2018-06-29T07:49:38.731Z,0.00
2018-06-29T07:51:10.300Z,0.00
2018-06-29T07:52:41.872Z,0.00
2018-06-29T07:54:13.441Z,0.00
2018-06-29T07:55:45.012Z,0.00
2018-06-29T07:57:16.585Z,0.00
2018-06-29T07:58:48.271Z,0.00
2018-06-29T08:00:19.721Z,0.00
2018-06-29T08:01:51.291Z,0.00
2018-06-29T08:03:22.961Z,0.00
2018-06-29T08:04:54.431Z,0.00
2018-06-29T08:06:26.002Z,0.00
2018-06-29T08:07:57.571Z,0.00
2018-06-29T08:09:29.140Z,0.00
2018-06-29T08:11:00.712Z,0.00
2018-06-29T08:12:32.282Z,0.00
2018-06-29T08:14:03.850Z,0.00
2018-06-29T08:15:35.421Z,0.00
2018-06-29T08:17:06.990Z,0.00
2018-06-29T08:18:38.560Z,0.00
2018-06-29T08:20:10.129Z,0.00
2018-06-29T08:21:41.800Z,0.00
2018-06-29T08:23:13.270Z,0.00
2018-06-29T08:24:44.838Z,0.00
2018-06-29T08:26:16.408Z,0.00
2018-06-29T08:27:47.978Z,0.00
2018-06-29T08:29:19.548Z,0.00
2018-06-29T08:30:51.121Z,0.00
2018-06-29T08:32:22.689Z,0.00
2018-06-29T08:33:54.407Z,0.00
2018-06-29T08:35:25.828Z,0.00
2018-06-29T08:36:57.397Z,0.00
2018-06-29T08:38:28.968Z,0.00
2018-06-29T08:40:00.637Z,0.00
2018-06-29T08:41:32.107Z,0.00
2018-06-29T08:43:03.676Z,0.00
2018-06-29T08:44:35.246Z,0.00
2018-06-29T08:46:06.817Z,0.00
2018-06-29T08:47:38.386Z,0.00
2018-06-29T08:49:09.956Z,0.00
2018-06-29T08:50:41.525Z,0.00
2018-06-29T08:52:13.102Z,0.00
2018-06-29T08:53:44.666Z,0.00
2018-06-29T08:55:16.235Z,0.00
2018-06-29T08:56:47.805Z,0.00
2018-06-29T08:58:19.730Z,0.00
2018-06-29T08:59:50.944Z,0.00
2018-06-29T09:01:22.515Z,0.00
2018-06-29T09:02:54.084Z,0.00
2018-06-29T09:04:25.654Z,0.00
2018-06-29T09:05:57.225Z,0.00
2018-06-29T09:07:28.794Z,0.00
2018-06-29T09:09:00.366Z,0.00
2018-06-29T09:10:31.934Z,0.00
2018-06-29T09:12:03.504Z,0.00
2018-06-29T09:13:35.073Z,0.00
2018-06-29T09:15:06.647Z,0.00
2018-06-29T09:16:38.313Z,0.00
2018-06-29T09:18:09.783Z,0.00
2018-06-29T09:19:41.352Z,0.00
2018-06-29T09:21:12.922Z,0.00
2018-06-29T09:22:44.491Z,0.00
2018-06-29T09:24:16.065Z,0.00
2018-06-29T09:25:47.632Z,0.00
2018-06-29T09:27:19.200Z,0.00
2018-06-29T09:28:50.772Z,0.00
2018-06-29T09:30:22.341Z,0.00
2018-06-29T09:31:53.910Z,0.00
2018-06-29T09:33:25.479Z,0.00
2018-06-29T09:34:57.149Z,0.00
2018-06-29T09:36:28.671Z,0.00
2018-06-29T09:38:00.188Z,0.00
2018-06-29T09:39:31.758Z,5.63
2018-06-29T09:41:03.328Z,5.63
2018-06-29T09:42:34.913Z,5.63
2018-06-29T09:44:06.522Z,11.25
2018-06-29T09:45:38.092Z,11.25
2018-06-29T09:47:09.662Z,16.88
2018-06-29T09:48:41.534Z,22.50
2018-06-29T09:50:12.951Z,28.13
2018-06-29T09:51:44.317Z,33.75
2018-06-29T09:53:15.986Z,39.38
2018-06-29T09:54:47.455Z,45.00
2018-06-29T09:56:19.028Z,50.63
2018-06-29T09:57:50.594Z,61.88
2018-06-29T09:59:22.164Z,67.50
2018-06-29T10:00:55.410Z,73.13
2018-06-29T10:02:31.688Z,84.38
2018-06-29T10:03:56.872Z,90.00
2018-06-29T10:05:28.443Z,106.88
2018-06-29T10:07:00.316Z,123.75
2018-06-29T10:08:32.115Z,140.63
2018-06-29T10:10:03.153Z,157.50
2018-06-29T10:11:34.827Z,174.38
2018-06-29T10:13:06.495Z,185.63
2018-06-29T10:14:37.867Z,196.88
2018-06-29T10:16:09.433Z,213.75
2018-06-29T10:17:41.004Z,230.63
2018-06-29T10:19:12.575Z,241.88
2018-06-29T10:22:16.246Z,264.38
2018-06-29T10:25:19.562Z,292.50
2018-06-29T10:26:50.430Z,303.75
2018-06-29T10:29:54.182Z,331.88
2018-06-29T10:31:25.247Z,337.50
2018-06-29T10:32:57.247Z,354.38
2018-06-29T10:34:28.368Z,365.63
2018-06-29T10:35:59.908Z,388.13
2018-06-29T10:37:31.435Z,410.63
2018-06-29T10:39:03.008Z,421.88
2018-06-29T10:40:35.111Z,438.75
2018-06-29T10:42:06.153Z,461.25
2018-06-29T10:43:37.727Z,478.13
2018-06-29T10:45:09.503Z,495.00
2018-06-29T10:48:12.449Z,545.63
2018-06-29T10:49:44.298Z,562.50
2018-06-29T10:52:47.805Z,590.63
2018-06-29T10:54:18.751Z,613.13
2018-06-29T10:55:50.319Z,624.38
2018-06-29T10:57:22.099Z,641.25
2018-06-29T10:58:53.469Z,658.13
2018-06-29T11:00:25.043Z,680.63
2018-06-29T11:01:56.821Z,686.25
2018-06-29T11:03:28.195Z,708.75
2018-06-29T11:04:59.775Z,736.88
2018-06-29T11:08:03.126Z,787.50
2018-06-29T11:09:34.554Z,804.38
2018-06-29T11:11:06.437Z,804.38
2018-06-29T11:12:38.789Z,832.50
2018-06-29T11:14:09.530Z,855.00
2018-06-29T11:15:40.804Z,866.25
2018-06-29T11:17:12.684Z,888.75
2018-06-29T11:18:44.262Z,900.00
2018-06-29T11:20:15.614Z,928.13
2018-06-29T11:23:18.712Z,973.13
2018-06-29T11:24:50.272Z,990.00
2018-06-29T11:26:22.143Z,1001.25
2018-06-29T11:27:53.416Z,1023.75
2018-06-29T11:29:25.012Z,1051.88
2018-06-29T11:30:57.102Z,1074.38
2018-06-29T11:35:31.301Z,1102.50
2018-06-29T11:38:34.458Z,1147.50
2018-06-29T11:40:06.236Z,1175.63
2018-06-29T11:43:10.693Z,1231.88
2018-06-29T11:44:41.072Z,1265.63
2018-06-29T11:46:12.354Z,1231.88
2018-06-29T11:47:43.975Z,1271.25
2018-06-29T11:49:16.491Z,1305.00
2018-06-29T11:50:47.236Z,1338.75
2018-06-29T11:52:18.659Z,1372.50
2018-06-29T11:55:21.815Z,1406.25
2018-06-29T11:56:53.598Z,1400.63
2018-06-29T11:59:56.754Z,1451.25
2018-06-29T12:01:28.232Z,1485.00
2018-06-29T12:02:59.771Z,1541.25
2018-06-29T12:04:31.293Z,1575.00
2018-06-29T12:06:03.071Z,1558.13
2018-06-29T12:07:34.753Z,1608.75
2018-06-29T12:12:09.717Z,1653.75
2018-06-29T12:15:12.379Z,1620.00
2018-06-29T12:16:43.923Z,1698.75
2018-06-29T12:18:15.502Z,1676.25
2018-06-29T12:21:19.297Z,1704.38
2018-06-29T12:22:50.244Z,1726.88
2018-06-29T12:24:21.839Z,1760.63
2018-06-29T12:25:53.417Z,1800.00
2018-06-29T12:27:24.982Z,1822.50
2018-06-29T12:28:57.298Z,1850.63
2018-06-29T12:30:28.142Z,1811.25
2018-06-29T12:33:31.301Z,1828.13
2018-06-29T12:35:02.998Z,1884.38
2018-06-29T12:36:34.483Z,1935.00
2018-06-29T12:39:37.722Z,1980.00
2018-06-29T12:41:09.410Z,2041.88
2018-06-29T12:42:40.827Z,2058.75
2018-06-29T12:44:12.370Z,2030.63
2018-06-29T12:45:44.554Z,1968.75
2018-06-29T12:47:16.061Z,2008.13
2018-06-29T12:51:50.269Z,2098.13
2018-06-29T12:53:21.850Z,2109.38
2018-06-29T12:54:53.642Z,2143.13
2018-06-29T12:56:25.517Z,2070.00
2018-06-29T12:57:56.769Z,2165.63
2018-06-29T12:59:28.187Z,2137.50
2018-06-29T13:00:59.962Z,2154.38
2018-06-29T13:04:02.947Z,2199.38
2018-06-29T13:07:06.082Z,2165.63
2018-06-29T13:10:09.294Z,2255.63
2018-06-29T13:11:41.024Z,2362.50
2018-06-29T13:13:12.404Z,2385.00
2018-06-29T13:14:44.723Z,2311.88
2018-06-29T13:17:47.450Z,2407.50
2018-06-29T13:19:18.731Z,2463.75
2018-06-29T13:20:50.842Z,2413.13
2018-06-29T13:22:21.895Z,2469.38
2018-06-29T13:23:53.477Z,2396.25
2018-06-29T13:25:25.270Z,2401.88
2018-06-29T13:26:56.663Z,2424.38
2018-06-29T13:28:28.551Z,2407.50
2018-06-29T13:31:31.383Z,2604.38
2018-06-29T13:33:02.990Z,2373.75
2018-06-29T13:36:06.394Z,2553.75
2018-06-29T13:37:37.810Z,2514.38
2018-06-29T13:39:09.296Z,2503.13
2018-06-29T13:40:41.077Z,2497.50
2018-06-29T13:42:12.762Z,2503.13
2018-06-29T13:43:44.096Z,2508.75
2018-06-29T13:45:15.682Z,2559.38
2018-06-29T13:46:47.261Z,2615.63
2018-06-29T13:48:18.842Z,2542.50
2018-06-29T13:49:50.426Z,2576.25
2018-06-29T13:51:22.009Z,2655.00
2018-06-29T13:52:53.541Z,2643.75
2018-06-29T13:54:25.167Z,2666.25
2018-06-29T13:57:28.670Z,2739.38
2018-06-29T13:58:59.900Z,2705.63
2018-06-29T14:02:03.059Z,2790.00
2018-06-29T14:03:35.321Z,2593.13
2018-06-29T14:05:06.198Z,2610.00
2018-06-29T14:06:38.081Z,2745.00
2018-06-29T14:08:09.400Z,2761.88
2018-06-29T14:09:41.006Z,2700.00
2018-06-29T14:11:12.528Z,2705.63
2018-06-29T14:12:44.111Z,2649.38
2018-06-29T14:14:15.695Z,2638.13
2018-06-29T14:15:47.378Z,2750.63
2018-06-29T14:17:19.065Z,2784.38
2018-06-29T14:20:22.230Z,2733.75
2018-06-29T14:21:53.745Z,2784.38
2018-06-29T14:23:25.395Z,2728.13
2018-06-29T14:24:56.980Z,2581.88
2018-06-29T14:26:28.359Z,2632.50
2018-06-29T14:29:31.728Z,2621.25
2018-06-29T14:31:03.107Z,2610.00
2018-06-29T14:32:34.691Z,2604.38
2018-06-29T14:34:07.008Z,2643.75
2018-06-29T14:35:38.839Z,2728.13
2018-06-29T14:37:09.440Z,2846.25
2018-06-29T14:38:41.234Z,2773.13
2018-06-29T14:40:12.619Z,2767.50
2018-06-29T14:43:15.954Z,2930.63
2018-06-29T14:44:47.356Z,2908.13
2018-06-29T14:46:19.507Z,2953.13
2018-06-29T14:49:22.632Z,2880.00
2018-06-29T14:50:53.893Z,3015.00
2018-06-29T14:55:28.947Z,3065.63
2018-06-29T14:57:00.296Z,2986.88
2018-06-29T14:58:31.609Z,3110.63
2018-06-29T15:00:03.726Z,3093.75
2018-06-29T15:01:35.569Z,2992.50
2018-06-29T15:03:06.361Z,3015.00
2018-06-29T15:04:38.021Z,2981.25
2018-06-29T15:07:41.922Z,3037.50
2018-06-29T15:09:12.697Z,3093.75
2018-06-29T15:10:44.281Z,3166.88
2018-06-29T15:12:15.864Z,3301.88
2018-06-29T15:13:47.751Z,3256.88
2018-06-29T15:15:19.034Z,3195.00
2018-06-29T15:16:50.825Z,3116.25
2018-06-29T15:18:22.404Z,3093.75
2018-06-29T15:19:53.829Z,3138.75
2018-06-29T15:21:25.575Z,3144.38
2018-06-29T15:22:56.955Z,3133.13
2018-06-29T15:24:28.563Z,3206.25
2018-06-29T15:26:00.123Z,3217.50
2018-06-29T15:27:31.970Z,3330.00
2018-06-29T15:29:03.296Z,3346.88
2018-06-29T15:30:35.411Z,3234.38
2018-06-29T15:32:06.564Z,3279.38
2018-06-29T15:33:38.552Z,3178.13
2018-06-29T15:35:09.631Z,3155.63
2018-06-29T15:36:41.226Z,3076.88
2018-06-29T15:38:13.103Z,3026.25
2018-06-29T15:39:44.806Z,2835.00
2018-06-29T15:41:16.273Z,2981.25
2018-06-29T15:45:50.937Z,2913.75
2018-06-29T15:47:22.308Z,2840.63
2018-06-29T15:48:54.095Z,2683.13
2018-06-29T15:50:25.476Z,2671.88
2018-06-29T15:51:57.277Z,2818.13
2018-06-29T15:53:29.177Z,2823.75
2018-06-29T15:55:00.231Z,2880.00
2018-06-29T15:56:31.815Z,2733.75
2018-06-29T15:58:03.657Z,2536.88
2018-06-29T16:01:06.570Z,2424.38
2018-06-29T16:02:38.746Z,2424.38
2018-06-29T16:04:10.110Z,2390.63
2018-06-29T16:05:41.477Z,2396.25
2018-06-29T16:08:44.491Z,2289.38
2018-06-29T16:10:16.177Z,2278.13
2018-06-29T16:13:19.452Z,2075.63
2018-06-29T16:14:50.861Z,2103.75
2018-06-29T16:16:22.636Z,2171.25
2018-06-29T16:17:54.000Z,2036.25
2018-06-29T16:19:25.588Z,2137.50
2018-06-29T16:22:28.766Z,2266.88
2018-06-29T16:27:03.717Z,2154.38
2018-06-29T16:28:35.194Z,2047.50
2018-06-29T16:30:06.679Z,2120.63
2018-06-29T16:31:38.447Z,2058.75
2018-06-29T16:33:09.918Z,2013.75
2018-06-29T16:34:41.437Z,1957.50
2018-06-29T16:36:13.019Z,1946.25
2018-06-29T16:37:44.858Z,2098.13
2018-06-29T16:39:16.714Z,2070.00
2018-06-29T16:40:47.783Z,2058.75
2018-06-29T16:42:19.903Z,2092.50
2018-06-29T16:43:50.944Z,2210.63
2018-06-29T16:45:22.575Z,2120.63
2018-06-29T16:46:54.360Z,1912.50
2018-06-29T16:49:57.398Z,1642.50
2018-06-29T16:51:28.866Z,1749.38
2018-06-29T16:53:00.459Z,1760.63
2018-06-29T16:54:32.242Z,1777.50
2018-06-29T16:56:03.621Z,1687.50
2018-06-29T16:57:35.204Z,1620.00
2018-06-29T16:59:06.788Z,1687.50
2018-06-29T17:00:38.475Z,1783.13
2018-06-29T17:03:41.544Z,1732.50
2018-06-29T17:05:14.664Z,1715.63
2018-06-29T17:06:44.712Z,1766.25
2018-06-29T17:08:16.511Z,1788.75
2018-06-29T17:09:47.908Z,1788.75
2018-06-29T17:11:19.467Z,1822.50
2018-06-29T17:12:51.053Z,1935.00
2018-06-29T17:14:22.635Z,1918.13
2018-06-29T17:15:54.852Z,1856.25
2018-06-29T17:17:25.881Z,1935.00
2018-06-29T17:18:57.775Z,1895.63
2018-06-29T17:20:29.176Z,1783.13
2018-06-29T17:22:00.669Z,1783.13
2018-06-29T17:25:04.121Z,1867.50
2018-06-29T17:28:07.023Z,1867.50
2018-06-29T17:29:38.784Z,1811.25
2018-06-29T17:31:10.064Z,1816.88
2018-06-29T17:34:13.548Z,1800.00
2018-06-29T17:35:45.021Z,1968.75
2018-06-29T17:38:47.987Z,2030.63
2018-06-29T17:40:19.569Z,1980.00
2018-06-29T17:43:22.768Z,2025.00
2018-06-29T17:44:54.557Z,1980.00
2018-06-29T17:46:25.948Z,1929.38
2018-06-29T17:47:57.867Z,1935.00
2018-06-29T17:51:01.304Z,1968.75
2018-06-29T17:54:04.126Z,2036.25
2018-06-29T17:55:35.940Z,1991.25
2018-06-29T17:57:07.116Z,2013.75
2018-06-29T17:58:38.900Z,2154.38
2018-06-29T18:01:41.742Z,1918.13
2018-06-29T18:03:13.821Z,1822.50
2018-06-29T18:04:44.908Z,1895.63
2018-06-29T18:06:16.642Z,1991.25
2018-06-29T18:07:48.287Z,1963.13
2018-06-29T18:09:19.659Z,1861.88
2018-06-29T18:12:22.837Z,1721.25
2018-06-29T18:13:54.560Z,1721.25
2018-06-29T18:15:26.093Z,1693.13
2018-06-29T18:18:29.274Z,1665.00
2018-06-29T18:20:00.751Z,1687.50
2018-06-29T18:21:32.460Z,1710.00
2018-06-29T18:23:04.118Z,1636.88
2018-06-29T18:24:35.493Z,1642.50
2018-06-29T18:26:07.708Z,1755.00
2018-06-29T18:27:39.291Z,1794.38
2018-06-29T18:30:41.848Z,1738.13
2018-06-29T18:32:13.542Z,1710.00
2018-06-29T18:33:45.054Z,1743.75
2018-06-29T18:35:17.197Z,1608.75
2018-06-29T18:36:48.691Z,1586.25
2018-06-29T18:38:19.940Z,1530.00
2018-06-29T18:39:51.522Z,1563.75
2018-06-29T18:41:22.908Z,1535.63
2018-06-29T18:42:54.681Z,1485.00
2018-06-29T18:45:58.588Z,1423.13
2018-06-29T18:47:29.536Z,1400.63
2018-06-29T18:49:01.412Z,1378.13
2018-06-29T18:50:32.401Z,1361.25
2018-06-29T18:52:04.284Z,1333.13
2018-06-29T18:53:35.564Z,1288.13
2018-06-29T18:55:07.348Z,1254.38
2018-06-29T18:56:38.931Z,1226.25
2018-06-29T18:58:10.311Z,1209.38
2018-06-29T18:59:42.039Z,1243.13
2018-06-29T19:01:14.459Z,1243.13
2018-06-29T19:02:45.064Z,1209.38
2018-06-29T19:04:16.843Z,1141.88
2018-06-29T19:05:48.223Z,1085.63
2018-06-29T19:07:19.855Z,1040.63
2018-06-29T19:08:51.386Z,1186.88
2018-06-29T19:10:23.620Z,1428.75
2018-06-29T19:11:55.426Z,1546.88
2018-06-29T19:13:26.388Z,1102.50
2018-06-29T19:14:57.824Z,630.00
2018-06-29T19:19:32.971Z,489.38
2018-06-29T19:21:04.076Z,466.88
2018-06-29T19:22:35.632Z,461.25
2018-06-29T19:24:07.406Z,444.38
2018-06-29T19:25:39.127Z,427.50
2018-06-29T19:27:10.368Z,421.88
2018-06-29T19:30:13.529Z,399.38
2018-06-29T19:33:16.903Z,382.50
2018-06-29T19:34:49.411Z,365.63
2018-06-29T19:36:19.855Z,354.38
2018-06-29T19:37:51.804Z,343.13
2018-06-29T19:39:23.018Z,326.25
2018-06-29T19:40:54.596Z,320.63
2018-06-29T19:42:26.481Z,309.38
2018-06-29T19:43:57.960Z,298.13
2018-06-29T19:45:29.440Z,292.50
2018-06-29T19:47:00.920Z,281.25
2018-06-29T19:51:35.663Z,247.50
2018-06-29T19:56:10.436Z,219.38
2018-06-29T19:59:13.569Z,202.50
2018-06-29T20:03:48.303Z,168.75
2018-06-29T20:05:20.284Z,157.50
2018-06-29T20:06:51.996Z,146.25
2018-06-29T20:09:54.624Z,123.75
2018-06-29T20:11:26.207Z,118.13
2018-06-29T20:12:57.781Z,112.50
2018-06-29T20:14:29.360Z,101.25
2018-06-29T20:16:00.941Z,90.00
2018-06-29T20:17:32.546Z,78.75
2018-06-29T20:19:04.102Z,73.13
2018-06-29T20:20:35.722Z,61.88
2018-06-29T20:22:07.254Z,61.88
2018-06-29T20:23:38.931Z,50.63
2018-06-29T20:25:10.410Z,39.38
2018-06-29T20:26:41.987Z,33.75
2018-06-29T20:28:13.564Z,28.13
2018-06-29T20:29:45.142Z,22.50
2018-06-29T20:31:16.723Z,16.88
2018-06-29T20:32:48.296Z,16.88
2018-06-29T20:34:19.920Z,11.25
2018-06-29T20:35:51.450Z,11.25
2018-06-29T20:37:23.027Z,5.63
2018-06-29T20:38:54.712Z,5.63
2018-06-29T20:40:26.180Z,5.63
2018-06-29T20:41:57.859Z,0.00
2018-06-29T20:43:29.332Z,0.00
2018-06-29T20:45:00.909Z,0.00
2018-06-29T20:46:32.484Z,0.00
2018-06-29T20:48:04.060Z,0.00
2018-06-29T20:49:35.697Z,0.00
2018-06-29T20:51:07.274Z,0.00
2018-06-29T20:52:38.788Z,0.00
2018-06-29T20:54:10.563Z,0.00
2018-06-29T20:55:41.996Z,0.00
2018-06-29T20:57:13.512Z,0.00
2018-06-29T20:58:45.087Z,0.00
2018-06-29T21:00:16.662Z,0.00
2018-06-29T21:01:48.237Z,0.00
2018-06-29T21:03:19.813Z,0.00
2018-06-29T21:04:51.410Z,0.00
2018-06-29T21:06:22.961Z,0.00
2018-06-29T21:07:54.536Z,0.00
2018-06-29T21:09:26.113Z,0.00
2018-06-29T21:10:57.685Z,0.00
2018-06-29T21:14:00.834Z,0.00
2018-06-29T21:15:32.411Z,0.00
2018-06-29T21:17:03.984Z,0.00
2018-06-29T21:18:35.557Z,0.00
2018-06-29T21:20:07.175Z,0.00
2018-06-29T21:21:38.705Z,0.00